aviador You're here:

WMKL Decoded Metar

PULAU in MALAYSIA
Report Time2017-08-22 03:00:00
UTC Time2017-08-22 03:29:56
Flight Rules vfr VFR
WindVRB at 02 kt
Visibility9999 m
Phenomena:N/A
Clouds:Few CB 017 Hf
Scattered 020 Hf
Broken 270 Hf
Expected CloudBase > 1,600 ft AGL from Temp-Dew spread
Ceiling27,000 ft
Temp30°C (ISA +15)
Dew Point26°C (79% RH)
Heat Index37.4°C
QNH1009 hPa
Density Alt2,323 ft
Elevation23 ft
Report Wrong Elevation
Raw Report
METAR WMKL 220300Z VRB02KT 9999 FEW017CB SCT020 BKN270 30/26 Q1009=

Extra information for WMKL:More info

Metar Taf Metar & Taf Last 4 Metars F.Rules Stats Wind Profile Meteogram Temp Stats Airport Information Weather charts Add Link Nearby VenuesMetar ALERT Operation Metar Decoded Social comments